createdAt,value
2022-10-13T00:00:07.980Z,16.52
2022-10-13T00:02:34.134Z,17.83
2022-10-13T00:05:00.257Z,17.63
2022-10-13T00:07:26.385Z,17.27
2022-10-13T00:09:52.514Z,19.25
2022-10-13T00:12:18.989Z,16.05
2022-10-13T00:14:45.376Z,14.35
2022-10-13T00:17:11.501Z,25.67
2022-10-13T00:19:37.652Z,14.07
2022-10-13T00:22:03.799Z,17.48
2022-10-13T00:24:29.934Z,16.75
2022-10-13T00:26:56.095Z,19.83
2022-10-13T00:29:22.210Z,15.82
2022-10-13T00:31:48.482Z,17.13
2022-10-13T00:34:14.613Z,17.88
2022-10-13T00:36:40.869Z,17.67
2022-10-13T00:39:06.983Z,17.65
2022-10-13T00:41:33.127Z,12.18
2022-10-13T00:43:59.228Z,18.05
2022-10-13T00:46:25.361Z,19.88
2022-10-13T00:48:51.528Z,14.27
2022-10-13T00:51:17.722Z,16.23
2022-10-13T00:53:43.886Z,13.30
2022-10-13T00:56:10.006Z,18.17
2022-10-13T00:58:36.162Z,16.13
2022-10-13T01:01:02.332Z,15.10
2022-10-13T01:03:28.492Z,14.80
2022-10-13T01:05:54.640Z,20.92
2022-10-13T01:08:20.757Z,14.40
2022-10-13T01:10:46.886Z,12.88
2022-10-13T01:13:13.034Z,13.32
2022-10-13T01:15:39.173Z,14.73
2022-10-13T01:18:05.327Z,14.45
2022-10-13T01:20:31.459Z,13.75
2022-10-13T01:22:57.577Z,18.90
2022-10-13T01:25:23.712Z,19.80
2022-10-13T01:27:49.841Z,15.98
2022-10-13T01:30:16.927Z,17.83
2022-10-13T01:32:43.070Z,15.30
2022-10-13T01:35:09.174Z,17.08
2022-10-13T01:37:35.308Z,18.80
2022-10-13T01:40:01.443Z,23.85
2022-10-13T01:42:27.675Z,19.23
2022-10-13T01:44:53.797Z,28.58
2022-10-13T01:47:19.930Z,32.97
2022-10-13T01:49:46.071Z,22.85
2022-10-13T01:52:12.180Z,59.92
2022-10-13T01:54:38.306Z,44.95
2022-10-13T01:57:04.601Z,75.47
2022-10-13T01:59:30.732Z,77.47
2022-10-13T02:01:56.848Z,158.85
2022-10-13T02:04:23.094Z,54.38
2022-10-13T02:06:49.230Z,29.40
2022-10-13T02:09:15.350Z,147.30
2022-10-13T02:11:41.527Z,38.50
2022-10-13T02:14:07.657Z,106.25
2022-10-13T02:16:33.785Z,212.45
2022-10-13T02:18:59.928Z,244.70
2022-10-13T02:21:26.054Z,152.18
2022-10-13T02:23:52.238Z,277.67
2022-10-13T02:26:18.358Z,92.05
2022-10-13T02:28:44.532Z,183.85
2022-10-13T02:31:10.717Z,39.58
2022-10-13T02:33:36.852Z,144.25
2022-10-13T02:36:03.007Z,113.32
2022-10-13T02:38:29.164Z,154.55
2022-10-13T02:40:55.279Z,98.18
2022-10-13T02:43:21.478Z,59.40
2022-10-13T02:45:47.591Z,100.95
2022-10-13T02:48:13.757Z,89.30
2022-10-13T02:50:39.879Z,42.42
2022-10-13T02:53:05.994Z,65.88
2022-10-13T02:55:32.113Z,185.63
2022-10-13T02:57:58.356Z,149.15
2022-10-13T03:00:24.475Z,126.57
2022-10-13T03:02:50.634Z,146.00
2022-10-13T03:05:16.785Z,118.32
2022-10-13T03:07:42.916Z,153.68
2022-10-13T03:10:09.144Z,214.63
2022-10-13T03:12:35.304Z,96.88
2022-10-13T03:15:01.417Z,72.07
2022-10-13T03:17:27.532Z,140.50
2022-10-13T03:19:53.664Z,125.47
2022-10-13T03:22:20.078Z,69.45
2022-10-13T03:24:46.429Z,94.65
2022-10-13T03:27:12.554Z,130.15
2022-10-13T03:29:38.691Z,141.68
2022-10-13T03:32:04.838Z,115.10
2022-10-13T03:34:31.103Z,93.00
2022-10-13T03:36:57.251Z,95.57
2022-10-13T03:39:23.365Z,89.45
2022-10-13T03:41:49.494Z,157.95
2022-10-13T03:44:15.648Z,84.53
2022-10-13T03:46:41.769Z,72.95
2022-10-13T03:49:07.893Z,77.72
2022-10-13T03:51:34.168Z,102.10
2022-10-13T03:54:00.302Z,50.20
2022-10-13T03:56:26.562Z,126.40
2022-10-13T03:58:52.697Z,89.95
2022-10-13T04:01:18.882Z,112.00
2022-10-13T04:03:45.039Z,113.93
2022-10-13T04:06:11.183Z,152.02
2022-10-13T04:08:37.311Z,113.40
2022-10-13T04:11:03.432Z,130.98
2022-10-13T04:13:29.621Z,73.90
2022-10-13T04:15:55.863Z,102.18
2022-10-13T04:18:21.999Z,129.15
2022-10-13T04:20:48.204Z,36.83
2022-10-13T04:23:14.403Z,70.68
2022-10-13T04:25:40.549Z,48.92
2022-10-13T04:28:06.660Z,70.60
2022-10-13T04:30:32.778Z,41.42
2022-10-13T04:32:58.911Z,36.85
2022-10-13T04:35:25.027Z,33.40
2022-10-13T04:37:51.170Z,42.38
2022-10-13T04:40:17.306Z,44.22
2022-10-13T04:42:43.501Z,60.70
2022-10-13T04:45:09.625Z,33.33
2022-10-13T04:47:37.127Z,35.00
2022-10-13T04:50:03.409Z,38.13
2022-10-13T04:52:29.536Z,36.60
2022-10-13T04:54:55.688Z,45.78
2022-10-13T04:57:21.853Z,47.95
2022-10-13T04:59:47.959Z,50.60
2022-10-13T05:02:14.135Z,62.72
2022-10-13T05:04:40.481Z,42.38
2022-10-13T05:07:17.454Z,39.13
2022-10-13T05:09:44.325Z,41.03
2022-10-13T05:12:10.466Z,39.70
2022-10-13T05:14:36.652Z,47.88
2022-10-13T05:17:02.773Z,50.13
2022-10-13T05:19:28.918Z,45.97
2022-10-13T05:21:55.058Z,39.70
2022-10-13T05:24:21.218Z,46.40
2022-10-13T05:26:47.365Z,42.90
2022-10-13T05:29:13.511Z,43.65
2022-10-13T05:31:39.651Z,39.25
2022-10-13T05:34:05.908Z,36.80
2022-10-13T05:36:32.036Z,38.90
2022-10-13T05:38:58.142Z,36.40
2022-10-13T05:41:24.277Z,42.00
2022-10-13T05:43:50.422Z,39.35
2022-10-13T05:46:16.548Z,34.78
2022-10-13T05:48:42.794Z,34.25
2022-10-13T05:51:08.972Z,38.30
2022-10-13T05:53:35.090Z,32.97
2022-10-13T05:56:01.215Z,35.15
2022-10-13T05:58:27.333Z,34.22
2022-10-13T06:00:53.460Z,36.22
2022-10-13T06:03:19.612Z,37.65
2022-10-13T06:05:45.746Z,35.72
2022-10-13T06:08:11.875Z,34.05
2022-10-13T06:10:38.022Z,37.70
2022-10-13T06:13:04.146Z,31.15
2022-10-13T06:15:30.279Z,29.65
2022-10-13T06:17:59.258Z,29.83
2022-10-13T06:20:25.473Z,28.92
2022-10-13T06:22:51.617Z,29.85
2022-10-13T06:25:17.756Z,32.20
2022-10-13T06:27:43.906Z,26.60
2022-10-13T06:30:10.061Z,29.83
2022-10-13T06:32:36.222Z,26.27
2022-10-13T06:35:02.339Z,22.95
2022-10-13T06:37:29.935Z,28.27
2022-10-13T06:39:57.065Z,27.23
2022-10-13T06:42:34.718Z,31.55
2022-10-13T06:45:13.851Z,25.10
2022-10-13T06:50:30.365Z,30.05
2022-10-13T06:53:08.964Z,33.55
2022-10-13T06:58:17.870Z,26.52
2022-10-13T07:00:48.687Z,27.42
2022-10-13T07:03:15.473Z,29.35
2022-10-13T07:05:42.894Z,31.00
2022-10-13T07:08:09.062Z,26.33
2022-10-13T07:13:15.430Z,24.73
2022-10-13T07:15:41.977Z,31.38
2022-10-13T07:18:08.142Z,24.70
2022-10-13T07:20:34.309Z,30.85
2022-10-13T07:23:00.483Z,32.38
2022-10-13T07:25:26.641Z,30.73
2022-10-13T07:27:52.755Z,35.85
2022-10-13T07:30:19.141Z,33.70
2022-10-13T07:32:45.271Z,32.72
2022-10-13T07:35:13.809Z,32.72
2022-10-13T07:37:39.950Z,29.92
2022-10-13T07:40:06.244Z,26.50
2022-10-13T07:42:32.391Z,24.20
2022-10-13T07:44:58.497Z,28.85
2022-10-13T07:47:24.678Z,28.88
2022-10-13T07:49:50.813Z,28.13
2022-10-13T07:52:17.123Z,34.13
2022-10-13T07:54:43.499Z,29.77
2022-10-13T07:57:09.752Z,21.85
2022-10-13T07:59:35.904Z,29.08
2022-10-13T08:02:02.022Z,28.50
2022-10-13T08:04:28.162Z,26.85
2022-10-13T08:06:54.274Z,25.42
2022-10-13T08:09:20.612Z,28.40
2022-10-13T08:11:46.752Z,28.00
2022-10-13T08:14:12.899Z,23.00
2022-10-13T08:16:39.019Z,26.40
2022-10-13T08:19:05.149Z,25.45
2022-10-13T08:24:17.413Z,27.23
2022-10-13T08:26:43.551Z,28.58
2022-10-13T08:29:25.012Z,31.55
2022-10-13T08:31:51.370Z,26.02
2022-10-13T08:34:17.615Z,27.70
2022-10-13T08:36:43.760Z,25.23
2022-10-13T08:39:09.879Z,24.02
2022-10-13T08:41:36.023Z,28.77
2022-10-13T08:44:49.532Z,22.15
2022-10-13T08:46:48.341Z,24.60
2022-10-13T08:49:14.468Z,32.80
2022-10-13T08:51:40.617Z,23.85
2022-10-13T08:54:07.034Z,25.00
2022-10-13T08:56:33.201Z,25.00
2022-10-13T08:58:59.396Z,27.00
2022-10-13T09:01:25.624Z,28.35
2022-10-13T09:03:51.810Z,27.15
2022-10-13T09:06:17.953Z,23.80
2022-10-13T09:08:44.135Z,29.63
2022-10-13T09:11:10.297Z,23.95
2022-10-13T09:13:36.435Z,25.23
2022-10-13T09:16:02.585Z,30.10
2022-10-13T09:18:28.703Z,25.35
2022-10-13T09:20:54.859Z,29.77
2022-10-13T09:23:20.968Z,32.17
2022-10-13T09:25:47.136Z,27.58
2022-10-13T09:28:13.315Z,26.65
2022-10-13T09:30:39.440Z,25.40
2022-10-13T09:33:05.621Z,27.00
2022-10-13T09:35:31.754Z,26.13
2022-10-13T09:37:57.922Z,24.52
2022-10-13T09:40:24.056Z,27.58
2022-10-13T09:42:50.215Z,28.30
2022-10-13T09:45:16.361Z,25.92
2022-10-13T09:47:42.582Z,29.08
2022-10-13T09:50:08.734Z,24.60
2022-10-13T09:52:34.871Z,24.27
2022-10-13T09:55:00.986Z,25.08
2022-10-13T09:57:27.381Z,25.13
2022-10-13T09:59:53.577Z,27.23
2022-10-13T10:02:21.356Z,26.17
2022-10-13T10:04:49.912Z,25.30
2022-10-13T10:07:16.043Z,28.80
2022-10-13T10:09:42.198Z,26.10
2022-10-13T10:12:11.359Z,30.38
2022-10-13T10:14:37.500Z,30.70
2022-10-13T10:17:03.630Z,28.52
2022-10-13T10:19:29.882Z,31.13
2022-10-13T10:21:56.019Z,28.90
2022-10-13T10:24:22.176Z,27.48
2022-10-13T10:26:48.293Z,30.38
2022-10-13T10:29:14.464Z,22.95
2022-10-13T10:31:40.590Z,26.30
2022-10-13T10:34:06.761Z,31.48
2022-10-13T10:36:32.893Z,31.52
2022-10-13T10:38:59.014Z,27.35
2022-10-13T10:41:25.156Z,32.28
2022-10-13T10:43:51.289Z,27.58
2022-10-13T10:46:17.443Z,29.50
2022-10-13T10:48:43.571Z,29.48
2022-10-13T10:51:09.725Z,28.02
2022-10-13T10:53:35.851Z,35.83
2022-10-13T10:56:02.008Z,31.80
2022-10-13T10:58:28.122Z,27.25
2022-10-13T11:06:37.280Z,28.90
2022-10-13T11:09:03.399Z,28.77
2022-10-13T11:11:32.303Z,38.25
2022-10-13T11:14:02.696Z,27.88
2022-10-13T11:16:28.843Z,35.05
2022-10-13T11:18:54.981Z,36.35
2022-10-13T11:21:21.194Z,28.08
2022-10-13T11:23:47.326Z,33.38
2022-10-13T11:26:13.445Z,31.10
2022-10-13T11:28:39.622Z,30.02
2022-10-13T11:31:05.796Z,25.63
2022-10-13T11:33:31.951Z,26.23
2022-10-13T11:35:58.077Z,32.15
2022-10-13T11:38:24.194Z,29.67
2022-10-13T11:40:50.329Z,28.60
2022-10-13T11:43:16.461Z,24.85
2022-10-13T11:45:42.592Z,31.90
2022-10-13T11:50:35.803Z,23.02
2022-10-13T11:53:02.066Z,24.80
2022-10-13T11:55:28.206Z,19.67
2022-10-13T11:57:54.341Z,28.27
2022-10-13T12:00:20.547Z,20.45
2022-10-13T12:02:46.707Z,23.27
2022-10-13T12:05:12.922Z,21.95
2022-10-13T12:07:39.082Z,20.83
2022-10-13T12:10:05.279Z,25.80
2022-10-13T12:12:31.434Z,22.70
2022-10-13T12:14:59.976Z,24.15
2022-10-13T12:17:29.245Z,18.00
2022-10-13T12:19:55.815Z,24.58
2022-10-13T12:22:21.933Z,19.98
2022-10-13T12:24:48.064Z,22.95
2022-10-13T12:27:14.251Z,22.20
2022-10-13T12:29:40.415Z,21.75
2022-10-13T12:32:06.555Z,21.35
2022-10-13T12:34:32.757Z,19.38
2022-10-13T12:36:58.886Z,19.10
2022-10-13T12:39:25.046Z,20.45
2022-10-13T12:41:51.171Z,26.30
2022-10-13T12:44:17.295Z,22.95
2022-10-13T12:46:43.433Z,20.88
2022-10-13T12:49:09.596Z,23.05
2022-10-13T12:51:35.750Z,21.10
2022-10-13T12:54:01.897Z,22.45
2022-10-13T12:56:28.062Z,19.30
2022-10-13T12:58:54.209Z,21.38
2022-10-13T13:01:20.746Z,20.40
2022-10-13T13:03:46.995Z,21.48
2022-10-13T13:06:13.148Z,21.95
2022-10-13T13:08:39.509Z,18.65
2022-10-13T13:11:05.630Z,19.55
2022-10-13T13:13:31.779Z,18.98
2022-10-13T13:15:57.890Z,18.35
2022-10-13T13:18:24.063Z,25.85
2022-10-13T13:20:50.395Z,23.73
2022-10-13T13:23:16.552Z,22.42
2022-10-13T13:25:42.657Z,16.85
2022-10-13T13:28:08.792Z,19.90
2022-10-13T13:30:34.930Z,24.33
2022-10-13T13:33:01.147Z,24.90
2022-10-13T13:35:27.356Z,17.88
2022-10-13T13:37:53.514Z,19.33
2022-10-13T13:40:19.664Z,21.48
2022-10-13T13:42:45.895Z,21.40
2022-10-13T13:45:12.117Z,19.45
2022-10-13T13:47:38.293Z,25.55
2022-10-13T13:50:04.424Z,20.73
2022-10-13T13:52:30.544Z,17.92
2022-10-13T13:54:56.690Z,20.42
2022-10-13T13:57:23.203Z,16.23
2022-10-13T13:59:49.414Z,20.63
2022-10-13T14:02:15.720Z,19.33
2022-10-13T14:04:41.868Z,19.15
2022-10-13T14:07:08.009Z,18.52
2022-10-13T14:09:34.132Z,17.88
2022-10-13T14:12:00.251Z,14.00
2022-10-13T14:14:26.403Z,22.60
2022-10-13T14:16:52.551Z,18.25
2022-10-13T14:19:18.703Z,17.80
2022-10-13T14:21:44.818Z,14.70
2022-10-13T14:24:10.975Z,18.70
2022-10-13T14:26:37.108Z,17.75
2022-10-13T14:29:03.230Z,21.50
2022-10-13T14:31:29.381Z,19.48
2022-10-13T14:33:55.488Z,16.88
2022-10-13T14:36:22.423Z,22.83
2022-10-13T14:38:50.685Z,20.55
2022-10-13T14:41:16.811Z,15.00
2022-10-13T14:43:42.973Z,21.77
2022-10-13T14:46:09.125Z,17.90
2022-10-13T14:48:35.269Z,19.25
2022-10-13T14:51:01.405Z,19.40
2022-10-13T14:53:27.510Z,16.13
2022-10-13T14:55:53.656Z,16.75
2022-10-13T14:58:20.958Z,23.70
2022-10-13T15:00:47.179Z,19.40
2022-10-13T15:03:13.392Z,17.80
2022-10-13T15:05:39.539Z,19.45
2022-10-13T15:08:05.698Z,21.17
2022-10-13T15:10:31.851Z,21.30
2022-10-13T15:12:58.028Z,19.17
2022-10-13T15:15:24.147Z,19.23
2022-10-13T15:17:50.318Z,17.65
2022-10-13T15:20:16.438Z,16.27
2022-10-13T15:22:42.752Z,20.77
2022-10-13T15:25:08.875Z,18.25
2022-10-13T15:27:38.094Z,29.42
2022-10-13T15:30:07.720Z,21.50
2022-10-13T15:32:33.830Z,20.25
2022-10-13T15:34:59.964Z,23.42
2022-10-13T15:37:26.131Z,21.20
2022-10-13T15:39:57.197Z,22.65
2022-10-13T15:42:23.887Z,19.60
2022-10-13T15:45:08.781Z,21.02
2022-10-13T15:47:35.913Z,18.33
2022-10-13T15:50:02.077Z,21.27
2022-10-13T15:52:33.838Z,23.02
2022-10-13T15:55:01.180Z,21.05
2022-10-13T15:57:27.307Z,18.80
2022-10-13T15:59:53.473Z,64.22
2022-10-13T16:02:19.916Z,25.02
2022-10-13T16:04:46.238Z,18.33
2022-10-13T16:07:12.388Z,27.98
2022-10-13T16:09:38.512Z,13.93
2022-10-13T16:12:04.649Z,17.83
2022-10-13T16:14:30.827Z,21.33
2022-10-13T16:16:59.988Z,24.25
2022-10-13T16:19:26.152Z,22.95
2022-10-13T16:21:52.294Z,21.10
2022-10-13T16:24:18.492Z,23.45
2022-10-13T16:26:44.634Z,25.20
2022-10-13T16:29:10.741Z,20.17
2022-10-13T16:31:36.865Z,18.20
2022-10-13T16:34:03.038Z,18.88
2022-10-13T16:36:29.177Z,18.63
2022-10-13T16:38:55.320Z,18.38
2022-10-13T16:41:21.463Z,24.65
2022-10-13T16:43:47.613Z,23.02
2022-10-13T16:46:13.749Z,20.05
2022-10-13T16:48:39.904Z,21.27
2022-10-13T16:51:06.065Z,16.73
2022-10-13T16:53:32.202Z,18.92
2022-10-13T16:55:58.392Z,19.65
2022-10-13T16:58:24.534Z,25.02
2022-10-13T17:00:50.754Z,16.98
2022-10-13T17:03:16.970Z,23.92
2022-10-13T17:05:43.082Z,18.58
2022-10-13T17:08:09.274Z,23.38
2022-10-13T17:10:35.409Z,21.17
2022-10-13T17:13:01.570Z,22.63
2022-10-13T17:15:27.712Z,18.55
2022-10-13T17:17:53.848Z,21.52
2022-10-13T17:20:19.962Z,17.58
2022-10-13T17:22:46.129Z,21.27
2022-10-13T17:25:12.248Z,18.98
2022-10-13T17:27:38.419Z,26.00
2022-10-13T17:30:04.585Z,18.55
2022-10-13T17:32:30.719Z,23.40
2022-10-13T17:34:56.842Z,19.90
2022-10-13T17:37:23.355Z,19.95
2022-10-13T17:39:49.747Z,16.58
2022-10-13T17:42:15.866Z,22.17
2022-10-13T17:44:42.030Z,19.98
2022-10-13T17:47:08.579Z,18.60
2022-10-13T17:49:34.713Z,20.15
2022-10-13T17:52:00.879Z,22.05
2022-10-13T17:54:27.044Z,26.77
2022-10-13T17:56:53.184Z,21.90
2022-10-13T17:59:19.316Z,23.30
2022-10-13T18:01:45.525Z,25.77
2022-10-13T18:04:11.705Z,25.15
2022-10-13T18:06:38.918Z,48.45
2022-10-13T18:09:05.139Z,21.75
2022-10-13T18:11:31.277Z,25.50
2022-10-13T18:13:57.393Z,22.55
2022-10-13T18:16:25.891Z,26.63
2022-10-13T18:18:52.031Z,20.67
2022-10-13T18:21:18.183Z,20.20
2022-10-13T18:23:44.338Z,23.17
2022-10-13T18:26:10.520Z,21.73
2022-10-13T18:28:36.725Z,25.38
2022-10-13T18:31:02.973Z,28.80
2022-10-13T18:33:35.728Z,21.33
2022-10-13T18:36:02.006Z,22.23
2022-10-13T18:38:28.158Z,21.13
2022-10-13T18:40:54.357Z,20.23
2022-10-13T18:43:20.523Z,29.45
2022-10-13T18:45:47.074Z,27.33
2022-10-13T18:48:13.237Z,20.88
2022-10-13T18:50:39.369Z,25.73
2022-10-13T18:55:56.612Z,21.10
2022-10-13T18:58:23.953Z,27.30
2022-10-13T19:14:27.126Z,23.83
2022-10-13T20:27:16.651Z,24.98
2022-10-13T20:29:44.136Z,23.10
2022-10-13T20:32:17.138Z,20.35
2022-10-13T20:34:43.445Z,23.15
2022-10-13T20:37:11.558Z,25.80
2022-10-13T20:39:42.622Z,25.85
2022-10-13T20:42:08.881Z,27.05
2022-10-13T20:44:35.128Z,32.08
2022-10-13T20:47:01.356Z,34.78
2022-10-13T20:49:29.728Z,27.15
2022-10-13T20:51:55.976Z,28.35
2022-10-13T20:54:22.358Z,30.10
2022-10-13T20:56:48.589Z,24.88
2022-10-13T20:59:14.952Z,28.60
2022-10-13T21:01:41.179Z,25.80
2022-10-13T21:04:07.513Z,26.65
2022-10-13T21:06:33.902Z,30.60
2022-10-13T21:09:00.131Z,26.08
2022-10-13T21:11:26.626Z,26.63
2022-10-13T21:13:52.992Z,25.15
2022-10-13T21:16:20.217Z,21.92
2022-10-13T21:18:47.962Z,31.48
2022-10-13T21:21:14.181Z,25.25
2022-10-13T21:23:40.364Z,23.45
2022-10-13T21:26:06.581Z,27.25
2022-10-13T21:28:32.892Z,26.02
2022-10-13T21:30:59.252Z,23.27
2022-10-13T21:33:25.598Z,26.42
2022-10-13T21:35:52.136Z,24.17
2022-10-13T21:38:18.318Z,25.80
2022-10-13T21:40:44.636Z,26.27
2022-10-13T21:43:10.805Z,22.50
2022-10-13T21:45:36.955Z,25.13
2022-10-13T21:48:03.145Z,21.63
2022-10-13T21:50:29.379Z,26.20
2022-10-13T21:52:55.566Z,22.00
2022-10-13T21:55:21.932Z,21.63
2022-10-13T21:57:48.166Z,20.08
2022-10-13T22:00:14.579Z,22.88
2022-10-13T22:02:40.758Z,21.88
2022-10-13T22:05:07.047Z,19.17
2022-10-13T22:07:33.652Z,18.77
2022-10-13T22:09:59.913Z,19.25
2022-10-13T22:12:26.129Z,21.35
2022-10-13T22:14:52.256Z,20.98
2022-10-13T22:17:18.659Z,23.67
2022-10-13T22:19:45.128Z,19.42
2022-10-13T22:22:11.329Z,19.95
2022-10-13T22:24:37.665Z,18.02
2022-10-13T22:27:03.924Z,17.20
2022-10-13T22:29:30.135Z,24.42
2022-10-13T22:31:56.340Z,18.17
2022-10-13T22:34:22.742Z,21.67
2022-10-13T22:36:48.893Z,21.92
2022-10-13T22:39:15.075Z,21.95
2022-10-13T22:41:41.368Z,20.73
2022-10-13T22:44:07.526Z,19.05
2022-10-13T22:46:33.908Z,16.83
2022-10-13T22:49:00.139Z,20.77
2022-10-13T22:51:26.495Z,18.85
2022-10-13T22:53:52.652Z,18.55
2022-10-13T22:56:18.879Z,22.85
2022-10-13T22:58:45.092Z,15.63
2022-10-13T23:01:11.359Z,20.33
2022-10-13T23:03:37.668Z,20.52
2022-10-13T23:06:04.030Z,23.80
2022-10-13T23:08:30.246Z,23.33
2022-10-13T23:10:58.206Z,21.77
2022-10-13T23:13:24.374Z,23.08
2022-10-13T23:15:50.597Z,20.20
2022-10-13T23:18:16.968Z,18.88
2022-10-13T23:20:43.219Z,19.10
2022-10-13T23:23:09.428Z,19.08
2022-10-13T23:25:35.618Z,17.92
2022-10-13T23:28:01.796Z,18.17
2022-10-13T23:30:28.055Z,21.33
2022-10-13T23:32:54.254Z,20.70
2022-10-13T23:35:20.389Z,16.27
2022-10-13T23:37:46.610Z,17.75
2022-10-13T23:40:12.774Z,15.48
2022-10-13T23:42:38.967Z,19.40
2022-10-13T23:45:05.329Z,18.08
2022-10-13T23:47:31.748Z,19.50
2022-10-13T23:49:57.923Z,19.42
2022-10-13T23:52:24.141Z,14.38
2022-10-13T23:54:50.420Z,14.60
2022-10-13T23:57:16.550Z,23.20
2022-10-13T23:59:42.950Z,25.35
